Test XHTML 1.0 Strict Page for WU-History Testing
Station Historical Data
 
Daily Summary for July 24, 2017 Units:  Both    English   Metric
« Previous Day
Next Day »
Daily Weekly Monthly Yearly Custom
  Current: High: Low: Average:
Temperature: 64.4 °F /  18 °C 68.7 °F /  20.4 °C 57.2 °F /  14 °C 61.8 °F /  16.6 °C
Dew Point: 61.7 °F /  16.5 °C 61.7 °F /  16.5 °C 57.1 °F /  13.9 °C 59 °F /  15 °C
Humidity: 91 % 100 % 73 % 91 %
Wind Speed: 0.0 mph /  0 km/h 11.5 mph /  18.5 km/h - 1.7 mph /  2.7 km/h
Wind Gust: 0.0 mph /  0 km/h 11.5 mph /  18.5 km/h - -
Wind:Calm - - SSE
Pressure: 30.02 in /  1016.5 hPa 30.02 in /  1016.5 hPa 29.85 in /  1010.7 hPa -
Precipitation: 0.00 in /  0 mm      
Historical Graphs
 
 
Weather-Above Climate History
Untitled
Tabular Data for July 24, 2017
Time Temperature Dew Point Pressure Wind Wind Speed Wind Gust Humidity Rainfall Rate (Hourly) solar Conditions
00:04 58.8 °F /  14.9 °C 58.8 °F /  14.9 °C 29.86 in /  1011.1 hPa Calm     100 % 0.01 in /  0.25 mm 17.5 W/m2 OVC
00:09 58.8 °F /  14.9 °C 58.8 °F /  14.9 °C 29.86 in /  1011.1 hPa Calm     100 % 0.01 in /  0.25 mm 0.0 W/m2 OVC
00:14 58.8 °F /  14.9 °C 58.8 °F /  14.9 °C 29.86 in /  1011.1 hPa Calm     100 % 0.01 in /  0.25 mm 0.0 W/m2 OVC
00:19 58.8 °F /  14.9 °C 58.8 °F /  14.9 °C 29.85 in /  1010.7 hPa NNW 1.5 mph /  2.4 km/h 1.5 mph /  2.4 km/h 100 % 0.00 in /  0 mm 17.5 W/m2 OVC
00:24 58.8 °F /  14.9 °C 58.8 °F /  14.9 °C 29.85 in /  1010.7 hPa ENE 9.2 mph /  14.8 km/h 9.2 mph /  14.8 km/h 100 % 0.00 in /  0 mm 0.0 W/m2 OVC
00:29 58.6 °F /  14.8 °C 58.6 °F /  14.8 °C 29.86 in /  1011.1 hPa East 1.4 mph /  2.3 km/h 1.4 mph /  2.3 km/h 100 % 0.00 in /  0 mm 0.0 W/m2 OVC
00:34 58.5 °F /  14.7 °C 58.5 °F /  14.7 °C 29.86 in /  1011.1 hPa ENE 2.6 mph /  4.2 km/h 2.6 mph /  4.2 km/h 100 % 0.00 in /  0 mm 17.5 W/m2 OVC
00:39 58.5 °F /  14.7 °C 58.5 °F /  14.7 °C 29.87 in /  1011.4 hPa ESE 2.3 mph /  3.7 km/h 2.3 mph /  3.7 km/h 100 % 0.00 in /  0 mm 0.0 W/m2 OVC
00:44 58.5 °F /  14.7 °C 58.5 °F /  14.7 °C 29.85 in /  1010.7 hPa West 1.5 mph /  2.4 km/h 1.5 mph /  2.4 km/h 100 % 0.00 in /  0 mm 0.0 W/m2 OVC
00:49 58.5 °F /  14.7 °C 58.5 °F /  14.7 °C 29.86 in /  1011.1 hPa NNE 1.0 mph /  1.6 km/h 1.0 mph /  1.6 km/h 100 % 0.00 in /  0 mm 17.5 W/m2 OVC
00:54 58.3 °F /  14.6 °C 58.3 °F /  14.6 °C 29.86 in /  1011.1 hPa NE 2.3 mph /  3.7 km/h 2.3 mph /  3.7 km/h 100 % 0.00 in /  0 mm 0.0 W/m2 OVC
00:59 58.1 °F /  14.5 °C 58.1 °F /  14.5 °C 29.86 in /  1011.1 hPa East 8.1 mph /  13 km/h 8.1 mph /  13 km/h 100 % 0.00 in /  0 mm 0.0 W/m2 OVC
01:04 58.1 °F /  14.5 °C 58.1 °F /  14.5 °C 29.86 in /  1011.1 hPa NW 0.8 mph /  1.3 km/h 0.8 mph /  1.3 km/h 100 % 0.00 in /  0 mm 20.0 W/m2 RA
01:10 58.1 °F /  14.5 °C 58.1 °F /  14.5 °C 29.86 in /  1011.1 hPa Calm     100 % 0.00 in /  0 mm 0.0 W/m2 RA
01:15 57.9 °F /  14.4 °C 57.9 °F /  14.4 °C 29.87 in /  1011.4 hPa WNW 1.2 mph /  1.9 km/h   100 % 0.00 in /  0 mm 17.5 W/m2 OVC
01:20 57.9 °F /  14.4 °C 57.9 °F /  14.4 °C 29.87 in /  1011.4 hPa NE 1.2 mph /  1.9 km/h   100 % 0.00 in /  0 mm 0.0 W/m2 OVC
01:25 57.9 °F /  14.4 °C 57.9 °F /  14.4 °C 29.87 in /  1011.4 hPa East 2.3 mph /  3.7 km/h 2.3 mph /  3.7 km/h 100 % 0.00 in /  0 mm 0.0 W/m2 OVC
01:30 57.9 °F /  14.4 °C 57.9 °F /  14.4 °C 29.88 in /  1011.7 hPa NNE 4.6 mph /  7.4 km/h 4.6 mph /  7.4 km/h 100 % 0.00 in /  0 mm 17.5 W/m2 OVC
01:35 57.9 °F /  14.4 °C 57.9 °F /  14.4 °C 29.89 in /  1012.1 hPa SE 2.3 mph /  3.7 km/h 2.3 mph /  3.7 km/h 100 % 0.00 in /  0 mm 0.0 W/m2 OVC
01:40 58.1 °F /  14.5 °C 58.1 °F /  14.5 °C 29.88 in /  1011.7 hPa ESE 2.5 mph /  4 km/h 2.5 mph /  4 km/h 100 % 0.00 in /  0 mm 0.0 W/m2 OVC
01:45 57.9 °F /  14.4 °C 57.9 °F /  14.4 °C 29.89 in /  1012.1 hPa East 2.8 mph /  4.5 km/h 2.8 mph /  4.5 km/h 100 % 0.00 in /  0 mm 20.0 W/m2 OVC
01:50 57.9 °F /  14.4 °C 57.9 °F /  14.4 °C 29.89 in /  1012.1 hPa Calm     100 % 0.00 in /  0 mm 0.0 W/m2 OVC
01:55 57.9 °F /  14.4 °C 57.9 °F /  14.4 °C 29.88 in /  1011.7 hPa Calm     100 % 0.00 in /  0 mm 0.0 W/m2 OVC
02:00 57.7 °F /  14.3 °C 57.7 °F /  14.3 °C 29.89 in /  1012.1 hPa NW 1.9 mph /  3.1 km/h 1.9 mph /  3.1 km/h 100 % 0.00 in /  0 mm 17.5 W/m2 OVC
02:05 57.7 °F /  14.3 °C 57.7 °F /  14.3 °C 29.90 in /  1012.4 hPa NNE 4.6 mph /  7.4 km/h 4.6 mph /  7.4 km/h 100 % 0.00 in /  0 mm 0.0 W/m2 OVC
02:10 57.9 °F /  14.4 °C 57.9 °F /  14.4 °C 29.90 in /  1012.4 hPa SE 5.0 mph /  8 km/h 5.0 mph /  8 km/h 100 % 0.00 in /  0 mm 17.5 W/m2 OVC
02:15 57.9 °F /  14.4 °C 57.9 °F /  14.4 °C 29.91 in /  1012.8 hPa WNW 2.3 mph /  3.7 km/h 2.3 mph /  3.7 km/h 100 % 0.00 in /  0 mm 17.5 W/m2 OVC
02:20 57.9 °F /  14.4 °C 57.9 °F /  14.4 °C 29.90 in /  1012.4 hPa Calm     100 % 0.00 in /  0 mm 0.0 W/m2 OVC
02:25 57.9 °F /  14.4 °C 57.9 °F /  14.4 °C 29.90 in /  1012.4 hPa WSW 1.2 mph /  1.9 km/h 1.2 mph /  1.9 km/h 100 % 0.00 in /  0 mm 17.5 W/m2 OVC
02:30 57.9 °F /  14.4 °C 57.9 °F /  14.4 °C 29.90 in /  1012.4 hPa NW 3.5 mph /  5.6 km/h   100 % 0.00 in /  0 mm 15.0 W/m2 OVC
02:35 57.9 °F /  14.4 °C 57.9 °F /  14.4 °C 29.91 in /  1012.8 hPa ENE 1.2 mph /  1.9 km/h   100 % 0.00 in /  0 mm 0.0 W/m2 OVC
02:40 57.7 °F /  14.3 °C 57.7 °F /  14.3 °C 29.91 in /  1012.8 hPa SW 3.5 mph /  5.6 km/h   100 % 0.00 in /  0 mm 20.0 W/m2 OVC
02:45 57.9 °F /  14.4 °C 57.9 °F /  14.4 °C 29.90 in /  1012.4 hPa NW 3.7 mph /  6 km/h 3.7 mph /  6 km/h 100 % 0.00 in /  0 mm 20.0 W/m2 OVC
02:50 57.9 °F /  14.4 °C 57.9 °F /  14.4 °C 29.91 in /  1012.8 hPa East 11.5 mph /  18.5 km/h 11.5 mph /  18.5 km/h 100 % 0.00 in /  0 mm 0.0 W/m2 OVC
02:56 57.9 °F /  14.4 °C 57.6 °F /  14.2 °C 29.91 in /  1012.8 hPa ENE 9.7 mph /  15.6 km/h 9.7 mph /  15.6 km/h 99 % 0.00 in /  0 mm 17.5 W/m2 OVC
03:01 57.9 °F /  14.4 °C 57.9 °F /  14.4 °C 29.90 in /  1012.4 hPa Calm     100 % 0.00 in /  0 mm 17.5 W/m2 OVC
03:06 57.9 °F /  14.4 °C 57.9 °F /  14.4 °C 29.91 in /  1012.8 hPa WNW 0.6 mph /  1 km/h 0.6 mph /  1 km/h 100 % 0.00 in /  0 mm 20.0 W/m2 OVC
03:11 57.9 °F /  14.4 °C 57.9 °F /  14.4 °C 29.91 in /  1012.8 hPa West 3.5 mph /  5.6 km/h 3.5 mph /  5.6 km/h 100 % 0.00 in /  0 mm 15.0 W/m2 OVC
03:16 57.9 °F /  14.4 °C 57.9 °F /  14.4 °C 29.90 in /  1012.4 hPa Calm     100 % 0.00 in /  0 mm 17.5 W/m2 OVC
03:21 57.9 °F /  14.4 °C 57.9 °F /  14.4 °C 29.91 in /  1012.8 hPa Calm     100 % 0.00 in /  0 mm 17.5 W/m2 OVC
03:24 57.9 °F /  14.4 °C 57.9 °F /  14.4 °C 29.91 in /  1012.8 hPa SSW 1.7 mph /  2.7 km/h 1.7 mph /  2.7 km/h 100 % 0.00 in /  0 mm 17.5 W/m2 OVC
03:29 58.1 °F /  14.5 °C 57.8 °F /  14.3 °C 29.91 in /  1012.8 hPa ENE 2.3 mph /  3.7 km/h 2.3 mph /  3.7 km/h 99 % 0.00 in /  0 mm 17.5 W/m2 OVC
03:34 58.1 °F /  14.5 °C 57.5 °F /  14.2 °C 29.91 in /  1012.8 hPa NE 3.5 mph /  5.6 km/h 3.5 mph /  5.6 km/h 98 % 0.00 in /  0 mm 0.0 W/m2 OVC
03:39 58.1 °F /  14.5 °C 57.8 °F /  14.3 °C 29.90 in /  1012.4 hPa ENE 1.2 mph /  1.9 km/h   99 % 0.00 in /  0 mm 20.0 W/m2 OVC
03:44 58.1 °F /  14.5 °C 57.8 °F /  14.3 °C 29.90 in /  1012.4 hPa SSE 3.5 mph /  5.6 km/h   99 % 0.00 in /  0 mm 17.5 W/m2 OVC
03:49 57.9 °F /  14.4 °C 57.9 °F /  14.4 °C 29.91 in /  1012.8 hPa NNE 1.2 mph /  1.9 km/h   100 % 0.00 in /  0 mm 17.5 W/m2 OVC
03:54 57.9 °F /  14.4 °C 57.9 °F /  14.4 °C 29.91 in /  1012.8 hPa East 3.5 mph /  5.6 km/h   100 % 0.00 in /  0 mm 17.5 W/m2 OVC
03:59 57.9 °F /  14.4 °C 57.9 °F /  14.4 °C 29.91 in /  1012.8 hPa WSW 1.2 mph /  1.9 km/h 1.2 mph /  1.9 km/h 100 % 0.00 in /  0 mm 0.0 W/m2 OVC
04:04 57.9 °F /  14.4 °C 57.9 °F /  14.4 °C 29.92 in /  1013.1 hPa Calm     100 % 0.00 in /  0 mm 15.0 W/m2 OVC
04:09 57.9 °F /  14.4 °C 57.9 °F /  14.4 °C 29.91 in /  1012.8 hPa Calm     100 % 0.00 in /  0 mm 15.0 W/m2 OVC
04:14 57.9 °F /  14.4 °C 57.9 °F /  14.4 °C 29.92 in /  1013.1 hPa Calm     100 % 0.00 in /  0 mm 0.0 W/m2 OVC
04:19 57.9 °F /  14.4 °C 57.9 °F /  14.4 °C 29.91 in /  1012.8 hPa SE 2.3 mph /  3.7 km/h 2.3 mph /  3.7 km/h 100 % 0.00 in /  0 mm 15.0 W/m2 OVC
04:24 57.9 °F /  14.4 °C 57.9 °F /  14.4 °C 29.92 in /  1013.1 hPa Calm     100 % 0.00 in /  0 mm 20.0 W/m2 OVC
04:30 57.9 °F /  14.4 °C 57.6 °F /  14.2 °C 29.93 in /  1013.4 hPa SE 1.2 mph /  1.9 km/h   99 % 0.00 in /  0 mm 0.0 W/m2 OVC
04:35 58.1 °F /  14.5 °C 57.8 °F /  14.3 °C 29.92 in /  1013.1 hPa Calm     99 % 0.00 in /  0 mm 15.0 W/m2 OVC
04:40 57.9 °F /  14.4 °C 57.9 °F /  14.4 °C 29.91 in /  1012.8 hPa Calm     100 % 0.00 in /  0 mm 17.5 W/m2 OVC
04:45 57.7 °F /  14.3 °C 57.7 °F /  14.3 °C 29.92 in /  1013.1 hPa Calm     100 % 0.00 in /  0 mm 0.0 W/m2 OVC
04:50 57.7 °F /  14.3 °C 57.7 °F /  14.3 °C 29.92 in /  1013.1 hPa Calm     100 % 0.00 in /  0 mm 17.5 W/m2 OVC
04:55 57.7 °F /  14.3 °C 57.7 °F /  14.3 °C 29.92 in /  1013.1 hPa West 3.5 mph /  5.6 km/h 3.5 mph /  5.6 km/h 100 % 0.00 in /  0 mm 20.0 W/m2 OVC
05:00 57.9 °F /  14.4 °C 57.9 °F /  14.4 °C 29.92 in /  1013.1 hPa Calm     100 % 0.00 in /  0 mm 0.0 W/m2 OVC
05:05 57.6 °F /  14.2 °C 57.6 °F /  14.2 °C 29.93 in /  1013.4 hPa Calm     100 % 0.00 in /  0 mm 17.5 W/m2 OVC
05:10 57.6 °F /  14.2 °C 57.6 °F /  14.2 °C 29.92 in /  1013.1 hPa Calm     100 % 0.00 in /  0 mm 20.0 W/m2 CLR
05:15 57.6 °F /  14.2 °C 57.3 °F /  14.1 °C 29.92 in /  1013.1 hPa Calm     99 % 0.00 in /  0 mm 20.0 W/m2 CLR
05:20 57.2 °F /  14 °C 57.2 °F /  14 °C 29.92 in /  1013.1 hPa Calm     100 % 0.00 in /  0 mm 20.0 W/m2 CLR
05:25 57.2 °F /  14 °C 57.2 °F /  14 °C 29.92 in /  1013.1 hPa Calm     100 % 0.00 in /  0 mm 0.0 W/m2 CLR
05:30 57.2 °F /  14 °C 57.2 °F /  14 °C 29.93 in /  1013.4 hPa Calm     100 % 0.00 in /  0 mm 0.1 W/m2 CLR
05:35 57.6 °F /  14.2 °C 57.6 °F /  14.2 °C 29.93 in /  1013.4 hPa WNW 1.2 mph /  1.9 km/h   100 % 0.00 in /  0 mm 17.5 W/m2 CLR
05:40 57.6 °F /  14.2 °C 57.6 °F /  14.2 °C 29.93 in /  1013.4 hPa Calm     100 % 0.00 in /  0 mm 0.1 W/m2 CLR
05:45 57.4 °F /  14.1 °C 57.4 °F /  14.1 °C 29.93 in /  1013.4 hPa Calm     100 % 0.00 in /  0 mm 0.3 W/m2 CLR
05:50 57.4 °F /  14.1 °C 57.4 °F /  14.1 °C 29.94 in /  1013.8 hPa Calm     100 % 0.00 in /  0 mm 27.5 W/m2 CLR
05:55 57.6 °F /  14.2 °C 57.6 °F /  14.2 °C 29.93 in /  1013.4 hPa SE 3.5 mph /  5.6 km/h 3.5 mph /  5.6 km/h 100 % 0.00 in /  0 mm 1.8 W/m2 CLR
06:00 57.6 °F /  14.2 °C 57.6 °F /  14.2 °C 29.94 in /  1013.8 hPa Calm     100 % 0.00 in /  0 mm 22.5 W/m2 CLR
06:05 57.6 °F /  14.2 °C 57.6 °F /  14.2 °C 29.95 in /  1014.1 hPa SW 1.5 mph /  2.4 km/h 1.5 mph /  2.4 km/h 100 % 0.00 in /  0 mm 1.3 W/m2 CLR
06:10 57.7 °F /  14.3 °C 57.5 °F /  14.2 °C 29.95 in /  1014.1 hPa Calm     99 % 0.00 in /  0 mm 2.8 W/m2 CLR
06:15 57.7 °F /  14.3 °C 57.7 °F /  14.3 °C 29.95 in /  1014.1 hPa Calm     100 % 0.00 in /  0 mm 32.5 W/m2 CLR
06:21 57.9 °F /  14.4 °C 57.1 °F /  13.9 °C 29.95 in /  1014.1 hPa Calm     97 % 0.00 in /  0 mm 6.2 W/m2 CLR
06:26 57.9 °F /  14.4 °C 57.6 °F /  14.2 °C 29.95 in /  1014.1 hPa Calm     99 % 0.00 in /  0 mm 6.9 W/m2 CLR
06:31 57.9 °F /  14.4 °C 57.9 °F /  14.4 °C 29.94 in /  1013.8 hPa West 2.2 mph /  3.5 km/h 2.2 mph /  3.5 km/h 100 % 0.00 in /  0 mm 32.5 W/m2 CLR
06:36 57.9 °F /  14.4 °C 57.9 °F /  14.4 °C 29.95 in /  1014.1 hPa Calm     100 % 0.00 in /  0 mm 8.8 W/m2 CLR
06:41 57.9 °F /  14.4 °C 57.9 °F /  14.4 °C 29.94 in /  1013.8 hPa NNW 0.6 mph /  1 km/h   100 % 0.00 in /  0 mm 40.0 W/m2 CLR
06:46 58.1 °F /  14.5 °C 58.1 °F /  14.5 °C 29.94 in /  1013.8 hPa Calm     100 % 0.00 in /  0 mm 14.3 W/m2 CLR
06:51 58.1 °F /  14.5 °C 57.8 °F /  14.3 °C 29.95 in /  1014.1 hPa SSE 0.3 mph /  0.5 km/h   99 % 0.00 in /  0 mm 18.0 W/m2 CLR
06:56 58.3 °F /  14.6 °C 57.7 °F /  14.3 °C 29.94 in /  1013.8 hPa Calm     98 % 0.00 in /  0 mm 70.0 W/m2 CLR
07:01 58.5 °F /  14.7 °C 57.9 °F /  14.4 °C 29.94 in /  1013.8 hPa Calm     98 % 0.00 in /  0 mm 20.9 W/m2 OVC
07:06 58.6 °F /  14.8 °C 58.4 °F /  14.7 °C 29.95 in /  1014.1 hPa Calm     99 % 0.00 in /  0 mm 25.5 W/m2 OVC
07:11 58.6 °F /  14.8 °C 58.1 °F /  14.5 °C 29.95 in /  1014.1 hPa WSW 3.6 mph /  5.8 km/h 3.6 mph /  5.8 km/h 98 % 0.00 in /  0 mm 80.0 W/m2 OVC
07:16 58.6 °F /  14.8 °C 58.1 °F /  14.5 °C 29.95 in /  1014.1 hPa Calm     98 % 0.00 in /  0 mm 29.1 W/m2 OVC
07:21 58.8 °F /  14.9 °C 58.3 °F /  14.6 °C 29.95 in /  1014.1 hPa SSE 2.5 mph /  4 km/h 2.5 mph /  4 km/h 98 % 0.00 in /  0 mm 67.5 W/m2 OVC
07:26 58.8 °F /  14.9 °C 58.5 °F /  14.7 °C 29.96 in /  1014.4 hPa Calm     99 % 0.00 in /  0 mm 72.5 W/m2 OVC
07:31 58.8 °F /  14.9 °C 58.5 °F /  14.7 °C 29.96 in /  1014.4 hPa Calm     99 % 0.00 in /  0 mm 39.1 W/m2 OVC
07:36 59.0 °F /  15 °C 58.2 °F /  14.6 °C 29.95 in /  1014.1 hPa Calm     97 % 0.00 in /  0 mm 115.0 W/m2 OVC
07:41 59.2 °F /  15.1 °C 58.3 °F /  14.6 °C 29.96 in /  1014.4 hPa Calm     97 % 0.00 in /  0 mm 132.5 W/m2 OVC
07:46 59.2 °F /  15.1 °C 58.6 °F /  14.8 °C 29.95 in /  1014.1 hPa NW 2.3 mph /  3.7 km/h 2.3 mph /  3.7 km/h 98 % 0.00 in /  0 mm 73.7 W/m2 OVC
07:51 59.4 °F /  15.2 °C 58.5 °F /  14.7 °C 29.95 in /  1014.1 hPa West 1.5 mph /  2.4 km/h 1.5 mph /  2.4 km/h 97 % 0.00 in /  0 mm 122.5 W/m2 OVC
07:56 59.2 °F /  15.1 °C 58.3 °F /  14.6 °C 29.96 in /  1014.4 hPa Calm     97 % 0.00 in /  0 mm 115.0 W/m2 OVC
08:01 59.0 °F /  15 °C 58.4 °F /  14.7 °C 29.96 in /  1014.4 hPa WNW 3.2 mph /  5.1 km/h   98 % 0.00 in /  0 mm 51.8 W/m2 OVC
08:07 59.0 °F /  15 °C 58.4 °F /  14.7 °C 29.95 in /  1014.1 hPa ESE 2.8 mph /  4.5 km/h 2.8 mph /  4.5 km/h 98 % 0.00 in /  0 mm 90.0 W/m2 OVC
08:12 58.8 °F /  14.9 °C 58.0 °F /  14.4 °C 29.96 in /  1014.4 hPa East 0.7 mph /  1.1 km/h 0.7 mph /  1.1 km/h 97 % 0.00 in /  0 mm 90.0 W/m2 OVC
08:17 58.5 °F /  14.7 °C 57.9 °F /  14.4 °C 29.96 in /  1014.4 hPa Calm     98 % 0.00 in /  0 mm 40.1 W/m2 OVC
08:22 58.5 °F /  14.7 °C 57.9 °F /  14.4 °C 29.96 in /  1014.4 hPa Calm     98 % 0.00 in /  0 mm 125.0 W/m2 OVC
08:27 58.5 °F /  14.7 °C 57.6 °F /  14.2 °C 29.96 in /  1014.4 hPa Calm     97 % 0.00 in /  0 mm 87.5 W/m2 OVC
08:32 58.6 °F /  14.8 °C 57.8 °F /  14.3 °C 29.96 in /  1014.4 hPa West 3.5 mph /  5.6 km/h   97 % 0.00 in /  0 mm 85.0 W/m2 OVC
08:37 58.6 °F /  14.8 °C 58.1 °F /  14.5 °C 29.97 in /  1014.8 hPa Calm     98 % 0.00 in /  0 mm 65.0 W/m2 OVC
08:42 58.5 °F /  14.7 °C 58.5 °F /  14.7 °C 29.97 in /  1014.8 hPa WSW 2.3 mph /  3.7 km/h 2.3 mph /  3.7 km/h 100 % 0.00 in /  0 mm 29.6 W/m2 OVC
08:47 58.5 °F /  14.7 °C 57.3 °F /  14.1 °C 29.97 in /  1014.8 hPa Calm     96 % 0.00 in /  0 mm 62.5 W/m2 OVC
08:52 58.5 °F /  14.7 °C 57.9 °F /  14.4 °C 29.98 in /  1015.1 hPa WNW 1.7 mph /  2.7 km/h 1.7 mph /  2.7 km/h 98 % 0.00 in /  0 mm 97.5 W/m2 OVC
08:57 59.0 °F /  15 °C 58.2 °F /  14.6 °C 29.98 in /  1015.1 hPa Calm     97 % 0.00 in /  0 mm 82.9 W/m2 OVC
09:02 59.2 °F /  15.1 °C 58.3 °F /  14.6 °C 29.98 in /  1015.1 hPa Calm     97 % 0.00 in /  0 mm 105.0 W/m2 OVC
09:07 59.4 °F /  15.2 °C 58.5 °F /  14.7 °C 29.98 in /  1015.1 hPa Calm     97 % 0.00 in /  0 mm 135.0 W/m2 BKN
09:12 59.7 °F /  15.4 °C 58.3 °F /  14.6 °C 29.99 in /  1015.5 hPa ESE 4.6 mph /  7.4 km/h 4.6 mph /  7.4 km/h 95 % 0.00 in /  0 mm 97.1 W/m2 OVC
09:17 59.7 °F /  15.4 °C 58.6 °F /  14.8 °C 29.98 in /  1015.1 hPa Calm     96 % 0.00 in /  0 mm 142.5 W/m2 OVC
09:22 59.7 °F /  15.4 °C 58.6 °F /  14.8 °C 29.98 in /  1015.1 hPa Calm     96 % 0.00 in /  0 mm 96.1 W/m2 OVC
09:27 59.7 °F /  15.4 °C 58.3 °F /  14.6 °C 29.98 in /  1015.1 hPa Calm     95 % 0.00 in /  0 mm 84.2 W/m2 OVC
09:32 59.7 °F /  15.4 °C 58.6 °F /  14.8 °C 29.99 in /  1015.5 hPa Calm     96 % 0.00 in /  0 mm 72.5 W/m2 OVC
09:37 59.4 °F /  15.2 °C 58.5 °F /  14.7 °C 29.99 in /  1015.5 hPa NW 1.2 mph /  1.9 km/h 1.2 mph /  1.9 km/h 97 % 0.00 in /  0 mm 61.9 W/m2 OVC
09:42 59.4 °F /  15.2 °C 58.5 °F /  14.7 °C 29.99 in /  1015.5 hPa WNW 3.5 mph /  5.6 km/h 3.5 mph /  5.6 km/h 97 % 0.00 in /  0 mm 54.4 W/m2 OVC
09:47 59.4 °F /  15.2 °C 58.5 °F /  14.7 °C 29.99 in /  1015.5 hPa Calm     97 % 0.00 in /  0 mm 82.5 W/m2 OVC
09:53 59.4 °F /  15.2 °C 58.5 °F /  14.7 °C 29.99 in /  1015.5 hPa Calm     97 % 0.00 in /  0 mm 74.8 W/m2 OVC
09:58 59.5 °F /  15.3 °C 58.4 °F /  14.7 °C 29.99 in /  1015.5 hPa Calm     96 % 0.00 in /  0 mm 123.4 W/m2 OVC
10:03 60.1 °F /  15.6 °C 58.9 °F /  14.9 °C 29.99 in /  1015.5 hPa ENE 0.7 mph /  1.1 km/h 0.7 mph /  1.1 km/h 96 % 0.00 in /  0 mm 242.5 W/m2 BKN
10:08 61.2 °F /  16.2 °C 59.4 °F /  15.2 °C 29.99 in /  1015.5 hPa Calm     94 % 0.00 in /  0 mm 351.6 W/m2 BKN
10:13 61.7 °F /  16.5 °C 59.4 °F /  15.2 °C 29.99 in /  1015.5 hPa WSW 1.2 mph /  1.9 km/h 1.2 mph /  1.9 km/h 92 % 0.00 in /  0 mm 240.2 W/m2 BKN
10:18 61.7 °F /  16.5 °C 58.7 °F /  14.8 °C 29.99 in /  1015.5 hPa SSE 1.7 mph /  2.7 km/h 1.7 mph /  2.7 km/h 90 % 0.00 in /  0 mm 305.2 W/m2 BKN
10:23 62.1 °F /  16.7 °C 59.4 °F /  15.2 °C 29.99 in /  1015.5 hPa NE 2.3 mph /  3.7 km/h 2.3 mph /  3.7 km/h 91 % 0.00 in /  0 mm 205.8 W/m2 BKN
10:28 61.7 °F /  16.5 °C 58.7 °F /  14.8 °C 29.99 in /  1015.5 hPa WNW 2.3 mph /  3.7 km/h 2.3 mph /  3.7 km/h 90 % 0.00 in /  0 mm 185.7 W/m2 BKN
10:33 61.5 °F /  16.4 °C 59.2 °F /  15.1 °C 30.01 in /  1016.1 hPa NNW 3.5 mph /  5.6 km/h 3.5 mph /  5.6 km/h 92 % 0.00 in /  0 mm 143.3 W/m2 OVC
10:38 61.2 °F /  16.2 °C 58.8 °F /  14.9 °C 30.00 in /  1015.8 hPa Calm     92 % 0.00 in /  0 mm 318.0 W/m2 BKN
10:43 62.1 °F /  16.7 °C 59.7 °F /  15.4 °C 30.01 in /  1016.1 hPa Calm     92 % 0.00 in /  0 mm 225.0 W/m2 BKN
10:48 62.6 °F /  17 °C 59.3 °F /  15.2 °C 30.00 in /  1015.8 hPa NNW 2.5 mph /  4 km/h 2.5 mph /  4 km/h 89 % 0.00 in /  0 mm 425.3 W/m2 BKN
10:53 63.0 °F /  17.2 °C 59.3 °F /  15.2 °C 30.00 in /  1015.8 hPa NNE 1.5 mph /  2.4 km/h 1.5 mph /  2.4 km/h 88 % 0.00 in /  0 mm 332.2 W/m2 BKN
10:58 62.8 °F /  17.1 °C 59.8 °F /  15.4 °C 29.99 in /  1015.5 hPa NE 1.2 mph /  1.9 km/h 1.2 mph /  1.9 km/h 90 % 0.00 in /  0 mm 257.5 W/m2 BKN
11:03 63.0 °F /  17.2 °C 59.7 °F /  15.4 °C 30.00 in /  1015.8 hPa Calm     89 % 0.00 in /  0 mm 391.8 W/m2 BKN
11:08 64.0 °F /  17.8 °C 60.4 °F /  15.8 °C 30.00 in /  1015.8 hPa East 4.6 mph /  7.4 km/h 4.6 mph /  7.4 km/h 88 % 0.00 in /  0 mm 375.6 W/m2 BKN
11:13 63.3 °F /  17.4 °C 59.4 °F /  15.2 °C 30.00 in /  1015.8 hPa East 3.5 mph /  5.6 km/h 3.5 mph /  5.6 km/h 87 % 0.00 in /  0 mm 282.5 W/m2 BKN
11:19 63.3 °F /  17.4 °C 60.0 °F /  15.6 °C 29.99 in /  1015.5 hPa Calm     89 % 0.00 in /  0 mm 450.8 W/m2 BKN
11:24 63.1 °F /  17.3 °C 58.9 °F /  14.9 °C 30.00 in /  1015.8 hPa NNE 6.9 mph /  11.1 km/h 6.9 mph /  11.1 km/h 86 % 0.00 in /  0 mm 790.0 W/m2 CLR
11:29 63.7 °F /  17.6 °C 58.8 °F /  14.9 °C 30.00 in /  1015.8 hPa East 2.6 mph /  4.2 km/h 2.6 mph /  4.2 km/h 84 % 0.00 in /  0 mm 315.0 W/m2 SCT
11:34 63.5 °F /  17.5 °C 59.6 °F /  15.3 °C 30.01 in /  1016.1 hPa East 1.2 mph /  1.9 km/h   87 % 0.00 in /  0 mm 399.1 W/m2 BKN
11:39 63.3 °F /  17.4 °C 60.0 °F /  15.6 °C 29.99 in /  1015.5 hPa East 1.8 mph /  2.9 km/h   89 % 0.00 in /  0 mm 251.0 W/m2 BKN
11:44 63.3 °F /  17.4 °C 60.0 °F /  15.6 °C 30.00 in /  1015.8 hPa SE 1.2 mph /  1.9 km/h 1.2 mph /  1.9 km/h 89 % 0.00 in /  0 mm 377.5 W/m2 FEW
11:49 64.4 °F /  18 °C 60.4 °F /  15.8 °C 30.00 in /  1015.8 hPa Calm     87 % 0.00 in /  0 mm 727.7 W/m2 FEW
11:54 64.8 °F /  18.2 °C 60.5 °F /  15.8 °C 29.99 in /  1015.5 hPa ENE 1.2 mph /  1.9 km/h   86 % 0.00 in /  0 mm 526.6 W/m2 BKN
11:59 65.3 °F /  18.5 °C 60.7 °F /  15.9 °C 29.99 in /  1015.5 hPa NNW 1.4 mph /  2.3 km/h   85 % 0.00 in /  0 mm 410.0 W/m2 FEW
12:04 64.2 °F /  17.9 °C 59.6 °F /  15.3 °C 30.00 in /  1015.8 hPa ESE 3.5 mph /  5.6 km/h 3.5 mph /  5.6 km/h 85 % 0.00 in /  0 mm 701.6 W/m2 FEW
12:09 63.9 °F /  17.7 °C 58.6 °F /  14.8 °C 30.00 in /  1015.8 hPa NNE 2.3 mph /  3.7 km/h 2.3 mph /  3.7 km/h 83 % 0.00 in /  0 mm 322.5 W/m2 BKN
12:14 64.4 °F /  18 °C 59.8 °F /  15.4 °C 29.99 in /  1015.5 hPa NW 3.0 mph /  4.8 km/h 3.0 mph /  4.8 km/h 85 % 0.00 in /  0 mm 422.5 W/m2 FEW
12:19 64.2 °F /  17.9 °C 58.9 °F /  14.9 °C 29.99 in /  1015.5 hPa ESE 4.8 mph /  7.7 km/h 4.8 mph /  7.7 km/h 83 % 0.00 in /  0 mm 850.0 W/m2 CLR
12:24 64.4 °F /  18 °C 59.1 °F /  15.1 °C 30.00 in /  1015.8 hPa NNW 3.5 mph /  5.6 km/h 3.5 mph /  5.6 km/h 83 % 0.00 in /  0 mm 345.0 W/m2 BKN
12:29 65.1 °F /  18.4 °C 59.5 °F /  15.3 °C 29.99 in /  1015.5 hPa NW 3.5 mph /  5.6 km/h 3.5 mph /  5.6 km/h 82 % 0.00 in /  0 mm 457.5 W/m2 CLR
12:34 66.7 °F /  19.3 °C 60.7 °F /  15.9 °C 29.99 in /  1015.5 hPa SE 3.9 mph /  6.3 km/h 3.9 mph /  6.3 km/h 81 % 0.00 in /  0 mm 859.0 W/m2 CLR
12:39 66.6 °F /  19.2 °C 60.2 °F /  15.7 °C 29.99 in /  1015.5 hPa NW 3.6 mph /  5.8 km/h 3.6 mph /  5.8 km/h 80 % 0.00 in /  0 mm 515.0 W/m2 CLR
12:44 66.4 °F /  19.1 °C 60.4 °F /  15.8 °C 29.99 in /  1015.5 hPa South 4.6 mph /  7.4 km/h 4.6 mph /  7.4 km/h 81 % 0.00 in /  0 mm 460.0 W/m2 CLR
12:49 66.2 °F /  19 °C 59.8 °F /  15.4 °C 30.00 in /  1015.8 hPa East 4.6 mph /  7.4 km/h 4.6 mph /  7.4 km/h 80 % 0.00 in /  0 mm 465.0 W/m2 FEW
12:55 66.6 °F /  19.2 °C 60.5 °F /  15.8 °C 29.99 in /  1015.5 hPa East 4.0 mph /  6.4 km/h 4.0 mph /  6.4 km/h 81 % 0.00 in /  0 mm 480.0 W/m2 CLR
13:00 67.3 °F /  19.6 °C 61.2 °F /  16.2 °C 30.00 in /  1015.8 hPa SE 1.2 mph /  1.9 km/h   81 % 0.00 in /  0 mm 395.0 W/m2 SCT
13:05 66.9 °F /  19.4 °C 60.2 °F /  15.7 °C 29.99 in /  1015.5 hPa WSW 2.3 mph /  3.7 km/h 2.3 mph /  3.7 km/h 79 % 0.00 in /  0 mm 277.5 W/m2 BKN
13:10 65.3 °F /  18.5 °C 59.7 °F /  15.4 °C 30.00 in /  1015.8 hPa ESE 2.3 mph /  3.7 km/h 2.3 mph /  3.7 km/h 82 % 0.00 in /  0 mm 325.0 W/m2 BKN
13:15 65.3 °F /  18.5 °C 59.7 °F /  15.4 °C 30.01 in /  1016.1 hPa NNE 3.5 mph /  5.6 km/h 3.5 mph /  5.6 km/h 82 % 0.00 in /  0 mm 870.0 W/m2 CLR
13:20 65.7 °F /  18.7 °C 59.3 °F /  15.2 °C 30.00 in /  1015.8 hPa West 1.9 mph /  3.1 km/h 1.9 mph /  3.1 km/h 80 % 0.00 in /  0 mm 562.5 W/m2 CLR
13:25 66.2 °F /  19 °C 59.1 °F /  15.1 °C 30.00 in /  1015.8 hPa East 7.0 mph /  11.3 km/h 7.0 mph /  11.3 km/h 78 % 0.00 in /  0 mm 407.5 W/m2 BKN
13:30 65.3 °F /  18.5 °C 59.3 °F /  15.2 °C 29.99 in /  1015.5 hPa WNW 3.6 mph /  5.8 km/h 3.6 mph /  5.8 km/h 81 % 0.00 in /  0 mm 869.0 W/m2 CLR
13:35 66.2 °F /  19 °C 58.4 °F /  14.7 °C 30.00 in /  1015.8 hPa NNW 11.5 mph /  18.5 km/h 11.5 mph /  18.5 km/h 76 % 0.00 in /  0 mm 300.0 W/m2 BKN
13:40 66.4 °F /  19.1 °C 59.7 °F /  15.4 °C 30.00 in /  1015.8 hPa Calm     79 % 0.00 in /  0 mm 622.5 W/m2 CLR
13:45 66.4 °F /  19.1 °C 59.7 °F /  15.4 °C 30.00 in /  1015.8 hPa NNE 7.0 mph /  11.3 km/h 7.0 mph /  11.3 km/h 79 % 0.00 in /  0 mm 414.7 W/m2 BKN
13:50 66.4 °F /  19.1 °C 59.3 °F /  15.2 °C 29.99 in /  1015.5 hPa ENE 2.3 mph /  3.7 km/h 2.3 mph /  3.7 km/h 78 % 0.00 in /  0 mm 620.0 W/m2 CLR
13:55 66.0 °F /  18.9 °C 59.0 °F /  15 °C 30.00 in /  1015.8 hPa NE 1.8 mph /  2.9 km/h 1.8 mph /  2.9 km/h 78 % 0.00 in /  0 mm 392.5 W/m2 BKN
14:00 66.6 °F /  19.2 °C 59.1 °F /  15.1 °C 30.00 in /  1015.8 hPa WSW 1.2 mph /  1.9 km/h 1.2 mph /  1.9 km/h 77 % 0.00 in /  0 mm 857.0 W/m2 CLR
14:05 68.0 °F /  20 °C 59.8 °F /  15.4 °C 30.00 in /  1015.8 hPa NNE 4.3 mph /  6.9 km/h 4.3 mph /  6.9 km/h 75 % 0.00 in /  0 mm 397.5 W/m2 CLR
14:10 66.7 °F /  19.3 °C 60.0 °F /  15.6 °C 30.00 in /  1015.8 hPa West 4.0 mph /  6.4 km/h 4.0 mph /  6.4 km/h 79 % 0.00 in /  0 mm 398.8 W/m2 BKN
14:15 66.2 °F /  19 °C 59.5 °F /  15.3 °C 30.00 in /  1015.8 hPa NE 3.7 mph /  6 km/h 3.7 mph /  6 km/h 79 % 0.00 in /  0 mm 322.5 W/m2 BKN
14:20 66.2 °F /  19 °C 59.5 °F /  15.3 °C 30.00 in /  1015.8 hPa NE 2.3 mph /  3.7 km/h 2.3 mph /  3.7 km/h 79 % 0.00 in /  0 mm 367.5 W/m2 BKN
14:25 66.2 °F /  19 °C 60.5 °F /  15.8 °C 29.99 in /  1015.5 hPa Calm     82 % 0.00 in /  0 mm 368.5 W/m2 BKN
14:30 66.4 °F /  19.1 °C 60.4 °F /  15.8 °C 30.00 in /  1015.8 hPa Calm     81 % 0.00 in /  0 mm 297.5 W/m2 BKN
14:35 66.7 °F /  19.3 °C 60.4 °F /  15.8 °C 30.00 in /  1015.8 hPa WNW 3.5 mph /  5.6 km/h 3.5 mph /  5.6 km/h 80 % 0.00 in /  0 mm 282.5 W/m2 BKN
14:41 66.2 °F /  19 °C 60.2 °F /  15.7 °C 30.01 in /  1016.1 hPa East 2.3 mph /  3.7 km/h 2.3 mph /  3.7 km/h 81 % 0.00 in /  0 mm 326.8 W/m2 BKN
14:46 66.0 °F /  18.9 °C 60.4 °F /  15.8 °C 30.00 in /  1015.8 hPa Calm     82 % 0.00 in /  0 mm 272.5 W/m2 BKN
14:51 66.6 °F /  19.2 °C 60.2 °F /  15.7 °C 30.01 in /  1016.1 hPa ESE 0.3 mph /  0.5 km/h   80 % 0.00 in /  0 mm 438.4 W/m2 BKN
14:56 66.2 °F /  19 °C 59.5 °F /  15.3 °C 30.01 in /  1016.1 hPa SE 4.6 mph /  7.4 km/h 4.6 mph /  7.4 km/h 79 % 0.00 in /  0 mm 359.9 W/m2 BKN
15:01 66.4 °F /  19.1 °C 60.0 °F /  15.6 °C 30.01 in /  1016.1 hPa SE 2.6 mph /  4.2 km/h 2.6 mph /  4.2 km/h 80 % 0.00 in /  0 mm 320.0 W/m2 BKN
15:06 65.8 °F /  18.8 °C 59.8 °F /  15.4 °C 30.01 in /  1016.1 hPa Calm     81 % 0.00 in /  0 mm 265.2 W/m2 BKN
15:11 65.3 °F /  18.5 °C 60.0 °F /  15.6 °C 30.01 in /  1016.1 hPa Calm     83 % 0.00 in /  0 mm 274.8 W/m2 BKN
15:16 65.5 °F /  18.6 °C 59.8 °F /  15.4 °C 30.00 in /  1015.8 hPa ENE 6.9 mph /  11.1 km/h 6.9 mph /  11.1 km/h 82 % 0.00 in /  0 mm 325.0 W/m2 BKN
15:21 65.3 °F /  18.5 °C 59.7 °F /  15.4 °C 30.01 in /  1016.1 hPa NE 1.7 mph /  2.7 km/h 1.7 mph /  2.7 km/h 82 % 0.00 in /  0 mm 343.3 W/m2 BKN
15:26 65.1 °F /  18.4 °C 59.5 °F /  15.3 °C 30.01 in /  1016.1 hPa WNW 2.3 mph /  3.7 km/h 2.3 mph /  3.7 km/h 82 % 0.00 in /  0 mm 411.8 W/m2 BKN
15:31 66.2 °F /  19 °C 60.2 °F /  15.7 °C 30.02 in /  1016.5 hPa NE 3.5 mph /  5.6 km/h   81 % 0.00 in /  0 mm 415.0 W/m2 BKN
15:36 66.2 °F /  19 °C 60.2 °F /  15.7 °C 30.02 in /  1016.5 hPa Calm     81 % 0.00 in /  0 mm 453.0 W/m2 BKN
15:41 66.9 °F /  19.4 °C 60.5 °F /  15.8 °C 30.02 in /  1016.5 hPa SE 3.5 mph /  5.6 km/h 3.5 mph /  5.6 km/h 80 % 0.00 in /  0 mm 355.6 W/m2 BKN
15:46 66.9 °F /  19.4 °C 60.2 °F /  15.7 °C 30.02 in /  1016.5 hPa Calm     79 % 0.00 in /  0 mm 280.0 W/m2 BKN
15:51 66.2 °F /  19 °C 59.8 °F /  15.4 °C 30.01 in /  1016.1 hPa NE 2.3 mph /  3.7 km/h 2.3 mph /  3.7 km/h 80 % 0.00 in /  0 mm 274.1 W/m2 BKN
15:56 66.2 °F /  19 °C 59.5 °F /  15.3 °C 30.02 in /  1016.5 hPa NE 8.1 mph /  13 km/h 8.1 mph /  13 km/h 79 % 0.00 in /  0 mm 305.7 W/m2 BKN
16:01 66.0 °F /  18.9 °C 59.7 °F /  15.4 °C 30.02 in /  1016.5 hPa SE 3.5 mph /  5.6 km/h 3.5 mph /  5.6 km/h 80 % 0.00 in /  0 mm 299.7 W/m2 BKN
16:07 66.6 °F /  19.2 °C 60.9 °F /  16.1 °C 30.02 in /  1016.5 hPa Calm     82 % 0.00 in /  0 mm 688.0 W/m2 CLR
16:12 66.7 °F /  19.3 °C 60.4 °F /  15.8 °C 30.01 in /  1016.1 hPa NNW 1.7 mph /  2.7 km/h 1.7 mph /  2.7 km/h 80 % 0.00 in /  0 mm 227.5 W/m2 BKN
16:17 66.2 °F /  19 °C 59.1 °F /  15.1 °C 30.02 in /  1016.5 hPa West 3.6 mph /  5.8 km/h 3.6 mph /  5.8 km/h 78 % 0.00 in /  0 mm 241.3 W/m2 BKN
16:22 66.6 °F /  19.2 °C 60.5 °F /  15.8 °C 30.00 in /  1015.8 hPa Calm     81 % 0.00 in /  0 mm 262.8 W/m2 BKN
16:27 67.5 °F /  19.7 °C 60.0 °F /  15.6 °C 30.01 in /  1016.1 hPa ESE 5.8 mph /  9.3 km/h 5.8 mph /  9.3 km/h 77 % 0.00 in /  0 mm 247.5 W/m2 BKN
16:32 67.1 °F /  19.5 °C 60.7 °F /  15.9 °C 30.02 in /  1016.5 hPa East 1.2 mph /  1.9 km/h   80 % 0.00 in /  0 mm 201.7 W/m2 BKN
16:37 66.6 °F /  19.2 °C 60.5 °F /  15.8 °C 30.00 in /  1015.8 hPa NW 0.4 mph /  0.6 km/h   81 % 0.00 in /  0 mm 151.4 W/m2 OVC
16:42 66.2 °F /  19 °C 58.8 °F /  14.9 °C 30.02 in /  1016.5 hPa Calm     77 % 0.00 in /  0 mm 222.5 W/m2 OVC
16:47 66.0 °F /  18.9 °C 60.0 °F /  15.6 °C 30.02 in /  1016.5 hPa Calm     81 % 0.00 in /  0 mm 397.3 W/m2 BKN
16:52 67.1 °F /  19.5 °C 60.7 °F /  15.9 °C 30.01 in /  1016.1 hPa SSE 1.2 mph /  1.9 km/h 1.2 mph /  1.9 km/h 80 % 0.00 in /  0 mm 206.2 W/m2 BKN
16:57 66.4 °F /  19.1 °C 59.7 °F /  15.4 °C 30.01 in /  1016.1 hPa SW 1.2 mph /  1.9 km/h 1.2 mph /  1.9 km/h 79 % 0.00 in /  0 mm 265.0 W/m2 BKN
17:02 67.5 °F /  19.7 °C 58.9 °F /  14.9 °C 30.01 in /  1016.1 hPa Calm     74 % 0.00 in /  0 mm 389.1 W/m2 BKN
17:07 68.0 °F /  20 °C 60.9 °F /  16.1 °C 30.01 in /  1016.1 hPa NW 2.3 mph /  3.7 km/h 2.3 mph /  3.7 km/h 78 % 0.00 in /  0 mm 237.5 W/m2 BKN
17:12 68.7 °F /  20.4 °C 61.6 °F /  16.4 °C 30.02 in /  1016.5 hPa Calm     78 % 0.00 in /  0 mm 452.5 W/m2 CLR
17:17 68.2 °F /  20.1 °C 61.4 °F /  16.3 °C 30.01 in /  1016.1 hPa Calm     79 % 0.00 in /  0 mm 152.4 W/m2 BKN
17:22 68.0 °F /  20 °C 60.5 °F /  15.8 °C 30.01 in /  1016.1 hPa East 1.2 mph /  1.9 km/h   77 % 0.00 in /  0 mm 205.0 W/m2 BKN
17:27 67.1 °F /  19.5 °C 60.7 °F /  15.9 °C 30.01 in /  1016.1 hPa SE 3.3 mph /  5.3 km/h 3.3 mph /  5.3 km/h 80 % 0.00 in /  0 mm 165.0 W/m2 OVC
17:32 68.4 °F /  20.2 °C 60.1 °F /  15.6 °C 30.02 in /  1016.5 hPa ENE 2.3 mph /  3.7 km/h 2.3 mph /  3.7 km/h 75 % 0.00 in /  0 mm 183.0 W/m2 BKN
17:37 68.7 °F /  20.4 °C 59.7 °F /  15.4 °C 30.01 in /  1016.1 hPa ENE 1.7 mph /  2.7 km/h 1.7 mph /  2.7 km/h 73 % 0.00 in /  0 mm 395.0 W/m2 BKN
17:42 68.5 °F /  20.3 °C 59.9 °F /  15.5 °C 30.02 in /  1016.5 hPa SW 1.2 mph /  1.9 km/h 1.2 mph /  1.9 km/h 74 % 0.00 in /  0 mm 392.5 W/m2 BKN
17:48 68.4 °F /  20.2 °C 60.1 °F /  15.6 °C 30.02 in /  1016.5 hPa WSW 2.3 mph /  3.7 km/h 2.3 mph /  3.7 km/h 75 % 0.00 in /  0 mm 108.9 W/m2 OVC
17:53 67.3 °F /  19.6 °C 60.9 °F /  16.1 °C 30.01 in /  1016.1 hPa Calm     80 % 0.00 in /  0 mm 165.0 W/m2 OVC
17:58 66.7 °F /  19.3 °C 61.1 °F /  16.2 °C 30.02 in /  1016.5 hPa SE 0.8 mph /  1.3 km/h 0.8 mph /  1.3 km/h 82 % 0.00 in /  0 mm 342.5 W/m2 BKN
18:03 66.9 °F /  19.4 °C 59.5 °F /  15.3 °C 30.01 in /  1016.1 hPa Calm     77 % 0.00 in /  0 mm 352.5 W/m2 OVC
18:08 66.9 °F /  19.4 °C 59.8 °F /  15.4 °C 30.02 in /  1016.5 hPa WNW 1.0 mph /  1.6 km/h 1.0 mph /  1.6 km/h 78 % 0.00 in /  0 mm 312.5 W/m2 SCT
18:13 66.9 °F /  19.4 °C 60.9 °F /  16.1 °C 30.02 in /  1016.5 hPa Calm     81 % 0.00 in /  0 mm 291.1 W/m2 SCT
18:18 67.3 °F /  19.6 °C 61.2 °F /  16.2 °C 30.02 in /  1016.5 hPa Calm     81 % 0.00 in /  0 mm 175.0 W/m2 BKN
18:23 66.6 °F /  19.2 °C 60.5 °F /  15.8 °C 30.02 in /  1016.5 hPa Calm     81 % 0.00 in /  0 mm 160.0 W/m2 OVC
18:28 65.7 °F /  18.7 °C 61.0 °F /  16.1 °C 30.02 in /  1016.5 hPa Calm     85 % 0.00 in /  0 mm 31.1 W/m2 OVC
18:33 65.3 °F /  18.5 °C 60.7 °F /  15.9 °C 30.02 in /  1016.5 hPa Calm     85 % 0.00 in /  0 mm 155.0 W/m2 OVC
18:38 65.1 °F /  18.4 °C 61.2 °F /  16.2 °C 30.02 in /  1016.5 hPa Calm     87 % 0.00 in /  0 mm 142.5 W/m2 OVC
18:43 65.1 °F /  18.4 °C 59.5 °F /  15.3 °C 30.02 in /  1016.5 hPa Calm     82 % 0.00 in /  0 mm 161.6 W/m2 BKN
18:48 65.1 °F /  18.4 °C 60.5 °F /  15.8 °C 30.02 in /  1016.5 hPa NNW 0.8 mph /  1.3 km/h 0.8 mph /  1.3 km/h 85 % 0.00 in /  0 mm 140.0 W/m2 BKN
18:53 65.3 °F /  18.5 °C 60.0 °F /  15.6 °C 30.02 in /  1016.5 hPa Calm     83 % 0.00 in /  0 mm 137.5 W/m2 OVC
18:58 65.3 °F /  18.5 °C 60.0 °F /  15.6 °C 30.02 in /  1016.5 hPa Calm     83 % 0.00 in /  0 mm 31.6 W/m2 OVC
19:03 65.1 °F /  18.4 °C 60.8 °F /  16 °C 30.02 in /  1016.5 hPa Calm     86 % 0.00 in /  0 mm 120.0 W/m2 OVC
19:08 64.8 °F /  18.2 °C 60.1 °F /  15.6 °C 30.02 in /  1016.5 hPa Calm     85 % 0.00 in /  0 mm 15.6 W/m2 OVC
19:13 64.2 °F /  17.9 °C 61.2 °F /  16.2 °C 30.02 in /  1016.5 hPa Calm     90 % 0.00 in /  0 mm 19.7 W/m2 OVC
19:18 64.4 °F /  18 °C 61.4 °F /  16.3 °C 30.02 in /  1016.5 hPa Calm     90 % 0.00 in /  0 mm 110.0 W/m2 OVC
19:23 64.4 °F /  18 °C 61.7 °F /  16.5 °C 30.02 in /  1016.5 hPa Calm     91 % 0.00 in /  0 mm 14.0 W/m2 OVC
19:28 64.4 °F /  18 °C 61.7 °F /  16.5 °C 30.02 in /  1016.5 hPa Calm     91 % 0.00 in /  0 mm 10.4 W/m2 OVC
Wether-Above
Compliments of Weather Underground - 2 mb
Welcome to Weather-Above
Cheddleton weather station supplies various organisations with data from our weather station one of them is the weather Underground this information displayed here is coming from the weather Underground server 

If any information is used please acknowledge the source to www weather-above.com or weather Underground